Time;durP1;ratioP1;P1;durP2;ratioP2;P2;SDS_P1;SDS_P2;PMS_P1;PMS_P2;Temp;Humidity;BMP_temperature;BMP_pressure;BME280_temperature;BME280_humidity;BME280_pressure;Samples;Min_cycle;Max_cycle;Signal;HPM_P1;HPM_P2
2023/06/06 00:01:29;;;;;;;0.32;0.32;;;10.20;99.90;;;;;;5055546;28;20152;-65
2023/06/06 00:03:56;;;;;;;0.10;0.10;;;10.20;99.90;;;;;;5032045;28;20116;-65
2023/06/06 00:06:24;;;;;;;0.75;0.20;;;10.30;99.90;;;;;;5033481;28;20491;-65
2023/06/06 00:08:52;;;;;;;0.35;0.22;;;10.30;99.90;;;;;;5030528;28;20034;-66
2023/06/06 00:11:18;;;;;;;0.10;0.10;;;10.30;99.90;;;;;;5037771;28;20044;-65
2023/06/06 00:13:49;;;;;;;0.28;0.28;;;10.30;99.90;;;;;;5033805;28;20047;-66
2023/06/06 00:16:15;;;;;;;0.85;0.20;;;10.30;99.90;;;;;;5035115;28;20037;-65
2023/06/06 00:18:41;;;;;;;0.20;0.20;;;10.20;99.90;;;;;;5038251;28;20075;-65
2023/06/06 00:21:08;;;;;;;0.25;0.10;;;10.30;99.90;;;;;;5037757;28;20547;-65
2023/06/06 00:23:34;;;;;;;0.95;0.30;;;10.20;99.90;;;;;;5069143;28;20044;-65
2023/06/06 00:26:00;;;;;;;0.28;0.22;;;10.20;99.90;;;;;;5033212;28;20067;-65
2023/06/06 00:28:26;;;;;;;0.20;0.20;;;10.20;99.90;;;;;;5019183;28;20041;-65
2023/06/06 00:30:51;;;;;;;4.57;0.40;;;10.20;99.90;;;;;;5018074;28;20063;-65
2023/06/06 00:33:17;;;;;;;0.30;0.30;;;10.20;99.90;;;;;;5032839;28;20052;-65
2023/06/06 00:35:42;;;;;;;0.10;0.10;;;10.20;99.90;;;;;;5034800;28;20037;-65
2023/06/06 00:38:08;;;;;;;0.17;0.17;;;10.20;99.90;;;;;;5037526;28;20033;-66
2023/06/06 00:40:33;;;;;;;0.30;0.30;;;10.10;99.90;;;;;;5035669;28;20072;-66
2023/06/06 00:42:59;;;;;;;1.60;0.70;;;10.10;99.90;;;;;;5064739;28;20037;-66
2023/06/06 00:45:25;;;;;;;0.52;0.50;;;10.00;99.90;;;;;;5035566;28;20037;-66
2023/06/06 00:47:50;;;;;;;0.20;0.20;;;10.00;99.90;;;;;;5032809;28;20037;-65
2023/06/06 00:50:16;;;;;;;0.17;0.10;;;10.00;99.90;;;;;;5033363;28;20086;-66
2023/06/06 00:52:46;;;;;;;0.00;0.00;;;9.90;99.90;;;;;;5032865;28;20445;-65
2023/06/06 00:55:13;;;;;;;0.10;0.10;;;9.90;99.90;;;;;;5037600;28;20388;-65
2023/06/06 00:57:43;;;;;;;0.35;0.28;;;9.90;99.90;;;;;;5064549;28;20091;-66
2023/06/06 01:00:10;;;;;;;0.73;0.73;;;9.80;99.90;;;;;;5040817;28;20039;-66
2023/06/06 01:02:37;;;;;;;1.08;0.73;;;9.80;99.90;;;;;;5038462;28;20128;-66
2023/06/06 01:05:09;;;;;;;1.65;0.63;;;9.80;99.90;;;;;;5040152;28;20175;-66
2023/06/06 01:07:35;;;;;;;0.57;0.50;;;9.70;99.90;;;;;;5039256;28;20099;-66
2023/06/06 01:10:09;;;;;;;0.20;0.20;;;9.70;99.90;;;;;;5035550;28;20056;-66
2023/06/06 01:12:44;;;;;;;0.55;0.38;;;9.60;99.90;;;;;;5039362;28;20072;-66
2023/06/06 01:15:24;;;;;;;0.35;0.20;;;9.60;99.90;;;;;;5036087;28;20040;-66
2023/06/06 01:17:51;;;;;;;0.52;0.52;;;9.50;99.90;;;;;;5072495;28;20045;-66
2023/06/06 01:20:17;;;;;;;0.45;0.20;;;9.50;99.90;;;;;;5035083;28;20056;-66
2023/06/06 01:22:44;;;;;;;0.63;0.40;;;9.50;99.90;;;;;;5032993;28;20045;-66
2023/06/06 01:25:12;;;;;;;1.48;1.38;;;9.40;99.90;;;;;;5034180;28;20171;-66
2023/06/06 01:27:38;;;;;;;0.25;0.25;;;9.40;99.90;;;;;;5034591;28;20419;-66
2023/06/06 01:30:04;;;;;;;0.52;0.25;;;9.40;99.90;;;;;;5035507;28;21247;-66
2023/06/06 01:32:36;;;;;;;0.32;0.32;;;9.50;99.90;;;;;;5069435;28;20051;-66
2023/06/06 01:35:29;;;;;;;1.55;1.20;;;9.40;99.90;;;;;;5066801;28;21149;-65
2023/06/06 01:38:01;;;;;;;2.08;1.35;;;9.40;99.90;;;;;;5035691;28;20541;-66
2023/06/06 01:40:30;;;;;;;0.17;0.17;;;9.30;99.90;;;;;;5062574;28;20052;-65
2023/06/06 01:42:55;;;;;;;2.72;1.50;;;9.30;99.90;;;;;;5037227;28;20050;-66
2023/06/06 01:45:26;;;;;;;1.05;0.70;;;9.20;99.90;;;;;;5039199;28;20043;-66
2023/06/06 01:47:52;;;;;;;1.45;1.13;;;9.20;99.90;;;;;;5068851;28;20048;-66
2023/06/06 01:50:18;;;;;;;0.57;0.57;;;9.20;99.90;;;;;;5034042;28;20037;-67
2023/06/06 01:52:44;;;;;;;1.08;0.60;;;9.20;99.90;;;;;;5063209;28;20056;-65
2023/06/06 01:55:10;;;;;;;0.63;0.63;;;9.10;99.90;;;;;;5066963;28;20523;-65
2023/06/06 01:57:36;;;;;;;0.20;0.20;;;9.00;99.90;;;;;;5066584;28;20134;-65
2023/06/06 02:00:04;;;;;;;1.35;0.38;;;9.00;99.90;;;;;;5033350;28;20040;-66
2023/06/06 02:02:30;;;;;;;0.40;0.40;;;9.00;99.90;;;;;;5032724;28;20041;-66
2023/06/06 02:04:55;;;;;;;0.45;0.45;;;9.00;99.90;;;;;;5070269;28;20396;-66
2023/06/06 02:07:21;;;;;;;0.93;0.60;;;9.00;99.90;;;;;;5040128;28;20045;-66
2023/06/06 02:09:46;;;;;;;0.47;0.20;;;8.90;99.90;;;;;;5036740;28;20042;-66
2023/06/06 02:12:12;;;;;;;0.75;0.60;;;8.90;99.90;;;;;;5028899;28;20037;-65
2023/06/06 02:14:37;;;;;;;0.43;0.43;;;8.90;99.90;;;;;;5035860;28;20502;-66
2023/06/06 02:17:03;;;;;;;0.80;0.30;;;9.00;99.90;;;;;;5034207;28;21682;-66
2023/06/06 02:19:32;;;;;;;1.85;0.77;;;8.90;99.90;;;;;;5036498;28;20631;-66
2023/06/06 02:21:58;;;;;;;0.77;0.75;;;9.00;99.90;;;;;;5034987;28;20488;-66
2023/06/06 02:24:27;;;;;;;3.53;1.00;;;9.00;99.90;;;;;;5037711;28;20033;-66
2023/06/06 02:26:53;;;;;;;0.60;0.47;;;9.00;99.90;;;;;;5034898;28;20048;-65
2023/06/06 02:29:23;;;;;;;0.45;0.45;;;9.00;99.90;;;;;;5068062;28;20044;-66
2023/06/06 02:31:53;;;;;;;5.13;0.77;;;9.00;99.90;;;;;;5029349;28;20048;-65
2023/06/06 02:34:18;;;;;;;1.27;0.40;;;9.10;99.90;;;;;;5039617;28;20047;-67
2023/06/06 02:36:44;;;;;;;0.30;0.30;;;9.00;99.90;;;;;;5036908;28;20037;-66
2023/06/06 02:39:10;;;;;;;0.90;0.43;;;9.00;99.90;;;;;;5068168;28;20534;-66
2023/06/06 02:41:35;;;;;;;0.30;0.30;;;9.00;99.90;;;;;;5020368;28;20492;-66
2023/06/06 02:44:01;;;;;;;0.28;0.28;;;9.00;99.90;;;;;;5064576;28;20041;-66
2023/06/06 02:46:27;;;;;;;0.43;0.43;;;9.00;99.90;;;;;;5031142;28;20126;-66
2023/06/06 02:48:53;;;;;;;0.35;0.35;;;9.00;99.90;;;;;;5037334;28;20471;-67
2023/06/06 02:51:22;;;;;;;0.63;0.50;;;9.00;99.90;;;;;;5064727;28;20166;-67
2023/06/06 02:53:49;;;;;;;0.10;0.10;;;9.00;99.90;;;;;;5030733;28;20066;-67
2023/06/06 02:56:16;;;;;;;0.05;0.05;;;8.90;99.90;;;;;;5059295;28;20048;-67
2023/06/06 02:58:42;;;;;;;0.10;0.10;;;9.00;99.90;;;;;;5034713;28;20045;-66
2023/06/06 03:01:09;;;;;;;0.20;0.20;;;9.00;99.90;;;;;;5071461;28;20037;-66
2023/06/06 03:03:35;;;;;;;0.20;0.20;;;8.90;99.90;;;;;;5037680;28;20043;-67
2023/06/06 03:06:01;;;;;;;0.60;0.40;;;9.00;99.90;;;;;;5063570;28;20029;-66
2023/06/06 03:08:26;;;;;;;3.50;0.75;;;9.00;99.90;;;;;;5055499;28;20574;-66
2023/06/06 03:10:52;;;;;;;0.40;0.40;;;8.90;99.90;;;;;;5038322;28;20044;-66
2023/06/06 03:13:18;;;;;;;1.75;0.43;;;8.90;99.90;;;;;;5036622;28;20045;-66
2023/06/06 03:15:47;;;;;;;0.75;0.75;;;8.90;99.90;;;;;;5070325;28;20040;-66
2023/06/06 03:18:16;;;;;;;0.75;0.55;;;9.00;99.90;;;;;;5033313;28;20037;-66
2023/06/06 03:20:45;;;;;;;1.08;0.30;;;9.00;99.90;;;;;;5036578;28;20049;-66
2023/06/06 03:23:12;;;;;;;1.40;0.68;;;8.90;99.90;;;;;;5035122;28;20488;-66
2023/06/06 03:25:40;;;;;;;0.50;0.50;;;9.00;99.90;;;;;;5067097;28;20376;-66
2023/06/06 03:28:05;;;;;;;0.35;0.35;;;8.90;99.90;;;;;;5017670;28;20045;-67
2023/06/06 03:30:31;;;;;;;0.22;0.22;;;8.90;99.90;;;;;;5065035;28;20033;-66
2023/06/06 03:32:57;;;;;;;0.35;0.35;;;8.90;99.90;;;;;;5032427;28;20068;-67
2023/06/06 03:35:23;;;;;;;0.75;0.75;;;8.90;99.90;;;;;;5068641;28;20044;-66
2023/06/06 03:37:49;;;;;;;0.43;0.20;;;8.90;99.90;;;;;;5065531;28;20335;-66
2023/06/06 03:40:14;;;;;;;0.80;0.45;;;9.00;99.90;;;;;;5065536;28;20696;-66
2023/06/06 03:42:40;;;;;;;0.20;0.20;;;8.90;99.90;;;;;;5066168;28;20091;-66
2023/06/06 03:45:06;;;;;;;0.30;0.30;;;9.00;99.90;;;;;;5068770;28;20043;-66
2023/06/06 03:47:31;;;;;;;0.05;0.05;;;9.00;99.90;;;;;;5039799;28;20056;-66
2023/06/06 03:49:57;;;;;;;2.00;0.75;;;9.00;99.90;;;;;;5068687;28;20037;-65
2023/06/06 03:52:25;;;;;;;0.45;0.30;;;9.00;99.90;;;;;;5038417;28;20535;-66
2023/06/06 03:54:51;;;;;;;0.10;0.10;;;9.10;99.90;;;;;;5074646;28;20426;-66
2023/06/06 03:57:16;;;;;;;0.10;0.10;;;9.10;99.90;;;;;;5036300;28;20059;-66
2023/06/06 03:59:42;;;;;;;0.13;0.13;;;9.10;99.90;;;;;;5038710;28;20399;-65
2023/06/06 04:02:07;;;;;;;1.10;0.28;;;9.20;99.90;;;;;;5035786;28;20049;-66
2023/06/06 04:04:33;;;;;;;0.82;0.30;;;9.20;99.90;;;;;;5037674;28;20738;-65
2023/06/06 04:06:59;;;;;;;0.47;0.47;;;9.20;99.90;;;;;;5039235;28;20123;-65
2023/06/06 04:09:24;;;;;;;0.03;0.03;;;9.30;99.90;;;;;;5038707;28;20483;-66
2023/06/06 04:11:50;;;;;;;1.20;0.63;;;9.30;99.90;;;;;;5043156;28;20044;-66
2023/06/06 04:14:16;;;;;;;0.85;0.43;;;9.40;99.90;;;;;;5039983;28;20377;-66
2023/06/06 04:16:41;;;;;;;0.20;0.20;;;9.40;99.90;;;;;;5044050;28;20044;-65
2023/06/06 04:19:07;;;;;;;0.50;0.40;;;9.40;99.90;;;;;;5058489;28;20514;-66
2023/06/06 04:21:33;;;;;;;1.05;0.98;;;9.50;99.90;;;;;;5035723;28;20048;-66
2023/06/06 04:23:59;;;;;;;1.75;0.85;;;9.50;99.90;;;;;;5038099;28;20503;-67
2023/06/06 04:26:31;;;;;;;1.38;0.52;;;9.60;99.90;;;;;;5070918;28;20040;-66
2023/06/06 04:29:00;;;;;;;0.80;0.38;;;9.70;99.90;;;;;;5070486;28;20060;-66
2023/06/06 04:31:29;;;;;;;0.50;0.50;;;9.70;99.90;;;;;;5063221;28;20040;-65
2023/06/06 04:34:00;;;;;;;0.20;0.20;;;9.80;99.90;;;;;;5035380;28;20140;-66
2023/06/06 04:36:26;;;;;;;0.17;0.17;;;9.90;99.90;;;;;;5064578;28;20095;-66
2023/06/06 04:39:00;;;;;;;1.80;1.23;;;9.90;99.90;;;;;;5038583;28;20029;-66
2023/06/06 04:41:30;;;;;;;0.80;0.80;;;10.00;99.90;;;;;;5041003;28;20033;-66
2023/06/06 04:44:01;;;;;;;0.20;0.20;;;10.10;99.90;;;;;;5039288;28;20045;-66
2023/06/06 04:46:29;;;;;;;0.65;0.25;;;10.20;99.90;;;;;;5037931;28;21514;-66
2023/06/06 04:49:02;;;;;;;0.70;0.30;;;10.30;99.90;;;;;;5037688;28;20095;-67
2023/06/06 04:51:29;;;;;;;1.00;0.70;;;10.30;99.90;;;;;;5047436;28;20044;-67
2023/06/06 04:54:06;;;;;;;0.30;0.30;;;10.40;99.90;;;;;;5042103;28;20047;-66
2023/06/06 04:56:32;;;;;;;0.35;0.35;;;10.50;99.90;;;;;;5042310;28;20583;-66
2023/06/06 04:59:04;;;;;;;0.93;0.50;;;10.60;99.90;;;;;;5076160;28;20156;-67
2023/06/06 05:01:31;;;;;;;0.55;0.55;;;10.60;99.90;;;;;;5073128;28;20083;-68
2023/06/06 05:03:57;;;;;;;0.13;0.13;;;10.80;99.90;;;;;;5073542;28;20051;-67
2023/06/06 05:06:25;;;;;;;2.38;0.15;;;10.80;99.90;;;;;;5039825;28;20041;-68
2023/06/06 05:08:50;;;;;;;0.40;0.32;;;11.00;99.90;;;;;;5034865;28;20041;-67
2023/06/06 05:11:18;;;;;;;1.85;0.43;;;11.10;99.90;;;;;;5069945;28;20381;-67
2023/06/06 05:13:43;;;;;;;0.20;0.20;;;11.20;99.90;;;;;;5041679;28;20037;-66
2023/06/06 05:16:09;;;;;;;0.30;0.28;;;11.30;99.90;;;;;;5067608;28;20098;-67
2023/06/06 05:18:35;;;;;;;1.92;0.68;;;11.40;99.90;;;;;;5062629;28;20053;-66
2023/06/06 05:21:03;;;;;;;0.50;0.50;;;11.50;99.90;;;;;;5067610;28;20049;-68
2023/06/06 05:23:29;;;;;;;0.15;0.15;;;11.60;99.90;;;;;;5068906;28;20124;-67
2023/06/06 05:25:57;;;;;;;0.63;0.55;;;11.80;99.90;;;;;;5034002;28;20119;-67
2023/06/06 05:28:27;;;;;;;0.80;0.63;;;11.90;99.90;;;;;;5033723;28;20146;-68
2023/06/06 05:30:52;;;;;;;0.60;0.57;;;12.00;99.90;;;;;;5034003;28;20537;-66
2023/06/06 05:33:19;;;;;;;0.30;0.30;;;12.10;99.90;;;;;;5070504;28;20033;-66
2023/06/06 05:35:48;;;;;;;0.80;0.70;;;12.20;99.90;;;;;;5069189;28;20040;-66
2023/06/06 05:38:15;;;;;;;0.63;0.52;;;12.40;99.90;;;;;;5015123;28;20071;-66
2023/06/06 05:40:41;;;;;;;0.20;0.20;;;12.50;99.90;;;;;;5035196;28;20041;-66
2023/06/06 05:43:07;;;;;;;0.65;0.43;;;12.60;99.90;;;;;;5020891;28;20092;-66
2023/06/06 05:45:32;;;;;;;0.52;0.17;;;12.70;99.90;;;;;;5032067;28;20498;-66
2023/06/06 05:47:58;;;;;;;0.63;0.40;;;12.80;99.90;;;;;;5033200;28;20778;-66
2023/06/06 05:50:24;;;;;;;0.30;0.30;;;12.90;99.90;;;;;;5033338;28;20475;-67
2023/06/06 05:52:50;;;;;;;0.20;0.20;;;13.00;99.90;;;;;;5066936;28;20205;-66
2023/06/06 05:55:30;;;;;;;0.25;0.10;;;13.20;99.90;;;;;;5040709;28;20195;-66
2023/06/06 05:57:56;;;;;;;0.30;0.30;;;13.20;99.90;;;;;;5070241;28;20052;-67
2023/06/06 06:00:26;;;;;;;0.10;0.10;;;13.30;99.90;;;;;;5039671;28;20037;-65
2023/06/06 06:02:53;;;;;;;0.45;0.40;;;13.40;99.90;;;;;;5041030;28;20469;-66
2023/06/06 06:05:22;;;;;;;0.88;0.60;;;13.50;99.90;;;;;;5070505;28;20060;-67
2023/06/06 06:07:49;;;;;;;0.00;0.00;;;13.60;99.90;;;;;;5039796;28;20124;-66
2023/06/06 06:10:15;;;;;;;0.25;0.20;;;13.70;99.90;;;;;;5023387;28;20660;-66
2023/06/06 06:12:44;;;;;;;0.32;0.32;;;13.80;99.90;;;;;;5040586;28;20045;-67
2023/06/06 06:15:10;;;;;;;0.10;0.10;;;13.90;99.90;;;;;;5037560;28;20370;-67
2023/06/06 06:17:36;;;;;;;0.30;0.30;;;14.00;99.90;;;;;;5041856;28;20051;-66
2023/06/06 06:20:07;;;;;;;3.00;0.45;;;14.00;99.90;;;;;;5039640;28;20025;-66
2023/06/06 06:22:33;;;;;;;0.40;0.40;;;14.00;99.90;;;;;;5057574;28;20107;-66
2023/06/06 06:24:59;;;;;;;2.70;0.40;;;14.10;99.90;;;;;;5039120;28;20055;-66
2023/06/06 06:27:25;;;;;;;0.20;0.20;;;14.20;99.90;;;;;;5037768;28;20036;-68
2023/06/06 06:29:50;;;;;;;1.10;1.00;;;14.30;99.90;;;;;;5072309;28;20040;-66
2023/06/06 06:32:19;;;;;;;0.32;0.32;;;14.40;99.90;;;;;;5040464;28;20044;-65
2023/06/06 06:34:45;;;;;;;1.27;0.30;;;14.50;99.90;;;;;;5038143;28;20456;-66
2023/06/06 06:37:10;;;;;;;0.25;0.25;;;14.60;99.90;;;;;;5041600;28;20072;-66
2023/06/06 06:39:36;;;;;;;0.82;0.40;;;14.70;99.90;;;;;;5035536;28;20770;-65
2023/06/06 06:42:01;;;;;;;0.30;0.30;;;14.80;99.90;;;;;;5038765;28;20060;-66
2023/06/06 06:44:27;;;;;;;0.32;0.32;;;14.90;99.90;;;;;;5073784;28;20079;-66
2023/06/06 06:46:53;;;;;;;0.10;0.10;;;15.00;99.90;;;;;;5039967;28;20381;-66
2023/06/06 06:49:18;;;;;;;0.60;0.30;;;15.20;99.90;;;;;;5041552;28;20045;-66
2023/06/06 06:51:44;;;;;;;0.60;0.60;;;15.20;99.90;;;;;;5039125;28;20052;-65
2023/06/06 06:54:11;;;;;;;0.10;0.10;;;15.20;99.90;;;;;;5043292;28;20102;-66
2023/06/06 06:56:38;;;;;;;0.00;0.00;;;15.30;99.90;;;;;;5037216;28;20044;-66
2023/06/06 06:59:05;;;;;;;0.35;0.28;;;15.40;99.90;;;;;;5055711;28;20047;-65
2023/06/06 07:01:32;;;;;;;0.20;0.20;;;15.60;99.90;;;;;;5038422;28;20076;-65
2023/06/06 07:03:58;;;;;;;0.32;0.32;;;15.70;99.90;;;;;;5041523;28;20051;-67
2023/06/06 07:06:23;;;;;;;0.55;0.40;;;15.70;99.90;;;;;;5073712;28;20567;-66
2023/06/06 07:08:51;;;;;;;0.88;0.65;;;15.70;99.90;;;;;;5039384;28;20048;-65
2023/06/06 07:11:17;;;;;;;0.60;0.60;;;15.70;99.90;;;;;;5034963;28;20175;-67
2023/06/06 07:13:42;;;;;;;0.55;0.20;;;15.80;99.90;;;;;;5037748;28;20467;-65
2023/06/06 07:16:09;;;;;;;0.28;0.28;;;15.80;99.90;;;;;;5038809;28;20041;-66
2023/06/06 07:18:34;;;;;;;0.30;0.25;;;16.00;99.90;;;;;;5036908;28;20048;-66
2023/06/06 07:21:00;;;;;;;1.02;0.30;;;16.00;99.90;;;;;;5071973;28;20404;-65
2023/06/06 07:23:26;;;;;;;1.02;0.40;;;16.00;99.90;;;;;;5039630;28;20522;-68
2023/06/06 07:25:52;;;;;;;0.30;0.20;;;16.00;99.90;;;;;;5042557;28;20263;-66
2023/06/06 07:28:18;;;;;;;2.03;0.50;;;16.10;99.90;;;;;;5044450;28;20044;-68
2023/06/06 07:30:44;;;;;;;0.88;0.85;;;16.10;99.90;;;;;;5031214;28;20061;-66
2023/06/06 07:33:10;;;;;;;0.43;0.28;;;16.20;99.90;;;;;;5043747;28;20492;-67
2023/06/06 07:35:36;;;;;;;0.45;0.30;;;16.20;99.90;;;;;;5075816;28;20209;-69
2023/06/06 07:38:02;;;;;;;0.95;0.63;;;16.30;99.90;;;;;;5038732;28;20044;-65
2023/06/06 07:40:28;;;;;;;2.05;0.73;;;16.30;99.90;;;;;;5039579;28;20052;-65
2023/06/06 07:42:55;;;;;;;0.98;0.63;;;16.40;99.90;;;;;;5043354;28;20040;-66
2023/06/06 07:45:21;;;;;;;1.15;0.47;;;16.50;99.90;;;;;;5045111;28;20523;-66
2023/06/06 07:47:46;;;;;;;0.20;0.20;;;16.70;99.90;;;;;;5036905;28;20048;-66
2023/06/06 07:50:13;;;;;;;0.80;0.80;;;16.70;99.90;;;;;;5074900;28;20049;-65
2023/06/06 07:52:43;;;;;;;0.73;0.32;;;16.70;99.90;;;;;;5044772;28;20497;-65
2023/06/06 07:55:11;;;;;;;1.50;0.43;;;16.80;99.90;;;;;;5047507;28;20515;-66
2023/06/06 07:57:39;;;;;;;3.20;0.25;;;17.00;99.90;;;;;;5037722;28;20757;-66
2023/06/06 08:00:10;;;;;;;0.25;0.25;;;17.00;99.90;;;;;;5073089;28;20037;-66
2023/06/06 08:02:39;;;;;;;0.40;0.20;;;17.10;99.90;;;;;;5044695;28;20469;-67
2023/06/06 08:05:06;;;;;;;0.10;0.10;;;17.20;99.90;;;;;;5038536;28;20049;-65
2023/06/06 08:07:35;;;;;;;0.65;0.65;;;17.20;99.90;;;;;;5033929;28;20038;-66
2023/06/06 08:10:02;;;;;;;0.85;0.70;;;17.40;99.90;;;;;;5077909;28;20048;-66
2023/06/06 08:12:28;;;;;;;0.22;0.20;;;17.50;99.90;;;;;;5027306;28;20037;-65
2023/06/06 08:14:53;;;;;;;0.32;0.28;;;17.60;99.90;;;;;;5078576;28;20455;-68
2023/06/06 08:17:19;;;;;;;0.22;0.20;;;17.70;99.90;;;;;;5028651;28;20049;-67
2023/06/06 08:19:44;;;;;;;0.40;0.40;;;17.80;99.90;;;;;;5042695;28;20044;-66
2023/06/06 08:22:10;;;;;;;0.75;0.40;;;17.70;99.90;;;;;;5036346;28;20546;-67
2023/06/06 08:24:37;;;;;;;1.95;0.93;;;17.70;99.90;;;;;;5044312;28;20073;-67
2023/06/06 08:27:03;;;;;;;0.88;0.65;;;17.70;99.90;;;;;;5044414;28;20048;-67
2023/06/06 08:29:28;;;;;;;5.68;0.73;;;17.70;99.90;;;;;;5033700;28;20041;-66
2023/06/06 08:31:54;;;;;;;0.40;0.40;;;17.60;99.90;;;;;;5039870;28;20072;-67
2023/06/06 08:34:23;;;;;;;4.07;0.40;;;17.70;99.90;;;;;;5044082;28;20382;-67
2023/06/06 08:36:49;;;;;;;1.48;0.82;;;17.70;99.90;;;;;;5048401;28;20070;-68
2023/06/06 08:39:18;;;;;;;0.40;0.40;;;17.90;99.90;;;;;;5044935;28;20058;-67
2023/06/06 08:41:50;;;;;;;1.13;0.73;;;18.00;99.90;;;;;;5045940;28;20087;-66
2023/06/06 08:44:17;;;;;;;;;;;18.00;99.90;;;;;;5043487;28;20251;-66
2023/06/06 08:46:46;;;;;;;0.17;0.17;;;18.10;99.90;;;;;;5046203;28;19921;-66
2023/06/06 08:49:15;;;;;;;0.38;0.38;;;18.30;99.90;;;;;;5037543;28;20041;-67
2023/06/06 08:51:42;;;;;;;0.45;0.45;;;18.50;99.90;;;;;;5045480;28;20047;-66
2023/06/06 08:54:09;;;;;;;0.15;0.15;;;18.70;99.90;;;;;;5047792;28;20561;-67
2023/06/06 08:56:37;;;;;;;0.45;0.20;;;18.80;99.90;;;;;;5044248;28;20794;-67
2023/06/06 08:59:03;;;;;;;1.17;1.02;;;18.90;99.90;;;;;;5032829;28;20144;-69
2023/06/06 09:01:30;;;;;;;0.57;0.57;;;18.90;99.90;;;;;;5066795;28;20116;-67
2023/06/06 09:03:57;;;;;;;1.27;1.15;;;18.70;99.90;;;;;;5023739;28;20069;-67
2023/06/06 09:06:23;;;;;;;0.77;0.77;;;18.70;99.90;;;;;;5048130;28;20069;-68
2023/06/06 09:08:49;;;;;;;0.95;0.88;;;18.60;99.90;;;;;;5042696;28;20067;-69
2023/06/06 09:11:16;;;;;;;0.65;0.45;;;18.60;99.90;;;;;;5049467;28;20574;-68
2023/06/06 09:13:42;;;;;;;3.50;1.02;;;18.60;99.90;;;;;;5039985;28;20045;-68
2023/06/06 09:16:08;;;;;;;1.45;0.30;;;18.70;99.90;;;;;;5030013;28;20498;-68
2023/06/06 09:18:35;;;;;;;0.95;0.40;;;18.70;99.90;;;;;;5030732;28;20049;-65
2023/06/06 09:21:01;;;;;;;0.35;0.35;;;18.80;99.90;;;;;;5030560;28;20053;-69
2023/06/06 09:23:30;;;;;;;1.90;1.20;;;19.00;99.90;;;;;;5041169;28;20045;-68
2023/06/06 09:25:56;;;;;;;2.72;0.90;;;19.00;99.90;;;;;;5042047;28;20076;-68
2023/06/06 09:28:38;;;;;;;0.93;0.40;;;19.00;99.90;;;;;;5043367;28;20457;-68
2023/06/06 09:31:37;;;;;;;0.20;0.20;;;18.90;99.90;;;;;;5030110;28;20397;-67
2023/06/06 09:34:03;;;;;;;9.07;0.80;;;18.90;99.90;;;;;;5069860;28;20080;-67
2023/06/06 09:36:29;;;;;;;1.92;0.57;;;19.10;99.90;;;;;;5048163;28;20123;-69
2023/06/06 09:39:05;;;;;;;0.50;0.50;;;19.10;99.90;;;;;;5044359;28;20045;-67
2023/06/06 09:41:37;;;;;;;0.20;0.13;;;19.30;99.90;;;;;;5042890;28;20051;-66
2023/06/06 09:44:04;;;;;;;6.88;1.00;;;19.30;99.90;;;;;;5036104;28;20172;-68
2023/06/06 09:46:34;;;;;;;0.93;0.80;;;19.30;99.90;;;;;;5039154;28;20053;-66
2023/06/06 09:49:00;;;;;;;0.38;0.35;;;19.30;99.90;;;;;;5038522;28;20377;-67
2023/06/06 09:51:31;;;;;;;0.90;0.85;;;19.30;99.90;;;;;;5039404;28;20067;-65
2023/06/06 09:54:00;;;;;;;1.35;1.25;;;19.30;99.90;;;;;;5066214;28;20053;-67
2023/06/06 09:56:27;;;;;;;0.43;0.30;;;19.40;99.90;;;;;;5041626;28;20065;-67
2023/06/06 09:58:57;;;;;;;0.68;0.50;;;19.40;99.90;;;;;;5032256;28;20052;-67
2023/06/06 10:01:27;;;;;;;1.05;0.93;;;19.50;99.90;;;;;;5038366;28;20033;-67
2023/06/06 10:03:55;;;;;;;0.68;0.45;;;19.60;99.90;;;;;;5039845;28;20070;-67
2023/06/06 10:06:22;;;;;;;0.30;0.30;;;19.70;99.90;;;;;;5041581;28;20444;-66
2023/06/06 10:08:53;;;;;;;1.48;0.60;;;19.80;99.90;;;;;;5037003;28;20120;-67
2023/06/06 10:11:21;;;;;;;9.55;0.38;;;19.90;99.90;;;;;;5040266;28;20186;-65
2023/06/06 10:13:48;;;;;;;0.30;0.30;;;20.00;99.90;;;;;;5039852;28;20041;-65
2023/06/06 10:16:15;;;;;;;0.40;0.40;;;20.10;99.90;;;;;;5041380;28;20123;-67
2023/06/06 10:18:42;;;;;;;0.10;0.10;;;20.20;99.90;;;;;;5038880;28;20060;-65
2023/06/06 10:21:08;;;;;;;0.38;0.38;;;20.30;99.90;;;;;;5033356;28;20037;-66
2023/06/06 10:23:34;;;;;;;0.63;0.63;;;20.30;99.90;;;;;;5039468;28;20041;-67
2023/06/06 10:26:01;;;;;;;0.80;0.28;;;20.40;99.90;;;;;;5045518;28;20227;-66
2023/06/06 10:28:30;;;;;;;1.38;0.73;;;20.40;99.90;;;;;;5040669;28;20037;-67
2023/06/06 10:31:03;;;;;;;0.30;0.30;;;20.50;99.90;;;;;;5041410;28;20041;-66
2023/06/06 10:33:42;;;;;;;2.60;0.40;;;20.60;99.90;;;;;;5072683;28;20037;-67
2023/06/06 10:36:10;;;;;;;1.98;0.30;;;20.60;99.90;;;;;;5039703;28;20033;-67
2023/06/06 10:38:37;;;;;;;1.42;1.33;;;20.60;99.90;;;;;;5037754;28;20287;-68
2023/06/06 10:41:15;;;;;;;1.40;0.85;;;20.60;99.90;;;;;;5074249;28;20041;-68
2023/06/06 10:43:41;;;;;;;0.57;0.50;;;20.60;99.90;;;;;;5033589;28;20613;-66
2023/06/06 10:46:07;;;;;;;0.60;0.60;;;20.50;99.90;;;;;;5071780;28;20523;-69
2023/06/06 10:48:45;;;;;;;0.80;0.80;;;20.50;99.90;;;;;;5040330;28;20047;-68
2023/06/06 10:51:25;;;;;;;0.75;0.63;;;20.40;99.90;;;;;;5037708;28;20163;-68
2023/06/06 10:54:13;;;;;;;0.55;0.50;;;20.50;99.90;;;;;;5031292;28;20045;-67
2023/06/06 10:56:46;;;;;;;0.10;0.10;;;20.30;99.90;;;;;;5038494;28;20037;-67
2023/06/06 10:59:13;;;;;;;6.60;0.57;;;20.20;99.90;;;;;;5036776;28;20033;-67
2023/06/06 11:01:44;;;;;;;0.30;0.30;;;20.20;99.90;;;;;;5023741;28;20380;-69
2023/06/06 11:04:17;;;;;;;0.80;0.80;;;20.30;99.90;;;;;;5035757;28;20033;-69
2023/06/06 11:06:44;;;;;;;1.02;0.45;;;20.20;99.90;;;;;;5076927;28;20040;-67
2023/06/06 11:09:31;;;;;;;2.95;1.35;;;20.10;99.90;;;;;;5037486;28;20044;-66
2023/06/06 11:12:11;;;;;;;0.73;0.73;;;20.30;99.90;;;;;;5038032;28;20825;-68
2023/06/06 11:14:56;;;;;;;0.95;0.60;;;20.20;99.90;;;;;;5036366;28;20734;-69
2023/06/06 11:17:27;;;;;;;0.30;0.30;;;20.30;99.90;;;;;;5058427;28;20051;-66
2023/06/06 11:19:55;;;;;;;0.65;0.63;;;20.50;99.90;;;;;;5041200;28;20037;-69
2023/06/06 11:22:25;;;;;;;0.85;0.82;;;20.60;99.90;;;;;;5013831;28;20041;-67
2023/06/06 11:24:51;;;;;;;0.65;0.10;;;20.60;99.90;;;;;;5071586;28;20048;-68
2023/06/06 11:27:17;;;;;;;6.40;0.98;;;20.70;99.90;;;;;;5039922;28;20037;-67
2023/06/06 11:29:43;;;;;;;1.77;0.80;;;20.70;99.90;;;;;;5074250;28;20106;-66
2023/06/06 11:32:10;;;;;;;4.30;0.70;;;20.70;99.90;;;;;;5038610;28;20127;-67
2023/06/06 11:34:38;;;;;;;1.52;1.33;;;20.70;99.90;;;;;;5039049;28;20041;-66
2023/06/06 11:37:05;;;;;;;0.50;0.50;;;20.70;99.90;;;;;;5038553;28;20052;-68
2023/06/06 11:39:31;;;;;;;0.28;0.28;;;20.80;99.90;;;;;;5037179;28;20041;-68
2023/06/06 11:41:57;;;;;;;1.48;0.82;;;20.80;99.90;;;;;;5033500;28;20444;-67
2023/06/06 11:44:32;;;;;;;0.30;0.30;;;20.90;99.90;;;;;;5039128;28;20774;-68
2023/06/06 11:46:57;;;;;;;0.32;0.32;;;20.90;99.90;;;;;;5072942;28;20128;-67
2023/06/06 11:49:23;;;;;;;1.90;0.55;;;20.80;99.90;;;;;;5036705;28;20124;-65
2023/06/06 11:52:00;;;;;;;7.43;0.90;;;20.90;99.90;;;;;;5039719;28;20075;-67
2023/06/06 11:54:27;;;;;;;0.60;0.50;;;20.90;99.90;;;;;;5072584;28;20124;-69
2023/06/06 11:56:56;;;;;;;1.17;1.00;;;20.90;99.90;;;;;;5037790;28;20036;-66
2023/06/06 11:59:22;;;;;;;1.75;0.90;;;21.00;99.90;;;;;;5042170;28;20045;-67
2023/06/06 12:01:56;;;;;;;2.40;0.80;;;21.00;99.90;;;;;;5042475;28;20567;-70
2023/06/06 12:04:23;;;;;;;2.80;1.00;;;21.10;99.90;;;;;;5072526;28;20068;-67
2023/06/06 12:06:50;;;;;;;0.45;0.45;;;21.10;99.90;;;;;;5047113;28;20083;-68
2023/06/06 12:09:18;;;;;;;1.02;0.40;;;21.10;99.90;;;;;;5076187;28;20462;-66
2023/06/06 12:11:50;;;;;;;1.15;0.80;;;21.00;99.90;;;;;;5047668;28;20136;-66
2023/06/06 12:14:15;;;;;;;;;;;21.00;99.90;;;;;;5041891;28;20114;-66
2023/06/06 12:16:41;;;;;;;1.02;0.75;;;21.00;99.90;;;;;;5072996;28;20372;-67
2023/06/06 12:19:17;;;;;;;0.77;0.77;;;21.00;99.90;;;;;;5047247;28;20041;-68
2023/06/06 12:21:51;;;;;;;2.58;0.40;;;21.10;99.90;;;;;;5047765;28;20045;-67
2023/06/06 12:24:18;;;;;;;0.85;0.20;;;21.10;99.90;;;;;;5045602;28;20551;-68
2023/06/06 12:26:51;;;;;;;0.38;0.30;;;21.10;99.90;;;;;;5043627;28;20533;-69
2023/06/06 12:29:18;;;;;;;0.10;0.10;;;21.20;99.90;;;;;;5043583;28;20133;-69
2023/06/06 12:31:45;;;;;;;0.95;0.88;;;21.40;99.90;;;;;;5042725;28;20079;-69
2023/06/06 12:34:13;;;;;;;0.70;0.70;;;21.50;99.90;;;;;;5043445;28;20605;-67
2023/06/06 12:36:38;;;;;;;0.70;0.70;;;21.50;99.90;;;;;;5047472;28;20492;-68
2023/06/06 12:39:07;;;;;;;0.77;0.30;;;21.40;99.90;;;;;;5070544;28;20073;-69
2023/06/06 12:41:43;;;;;;;3.15;1.20;;;21.30;99.90;;;;;;5043829;28;20037;-67
2023/06/06 12:44:18;;;;;;;2.38;1.13;;;21.30;99.90;;;;;;5034216;28;20123;-69
2023/06/06 12:46:45;;;;;;;0.55;0.55;;;21.20;99.90;;;;;;5041520;28;20045;-69
2023/06/06 12:49:10;;;;;;;2.97;0.55;;;21.00;99.90;;;;;;5046978;28;20163;-68
2023/06/06 12:51:39;;;;;;;4.30;1.10;;;21.00;99.90;;;;;;5045897;28;20116;-67
2023/06/06 12:54:05;;;;;;;0.88;0.68;;;21.00;99.90;;;;;;5039550;28;20375;-70